createdAt,value
2023-04-01T00:01:37.796Z,98.14
2023-04-01T00:04:08.220Z,98.35
2023-04-01T00:06:41.897Z,98.45
2023-04-01T00:09:10.660Z,98.51
2023-04-01T00:11:39.549Z,98.54
2023-04-01T00:14:08.269Z,98.25
2023-04-01T00:16:36.534Z,98.29
2023-04-01T00:19:05.083Z,98.55
2023-04-01T00:21:35.232Z,98.75
2023-04-01T00:24:04.036Z,98.45
2023-04-01T00:26:33.460Z,98.62
2023-04-01T00:29:02.619Z,98.90
2023-04-01T00:31:31.310Z,99.13
2023-04-01T00:34:00.049Z,98.91
2023-04-01T00:36:28.896Z,99.07
2023-04-01T00:39:00.003Z,99.26
2023-04-01T00:41:29.645Z,99.05
2023-04-01T00:44:20.261Z,99.26
2023-04-01T00:46:49.859Z,99.78
2023-04-01T00:49:20.989Z,99.75
2023-04-01T00:51:53.190Z,99.68
2023-04-01T00:54:24.725Z,99.97
2023-04-01T00:56:57.438Z,99.74
2023-04-01T00:59:28.649Z,99.99
2023-04-01T01:01:57.130Z,99.87
2023-04-01T01:04:28.800Z,99.98
2023-04-01T01:07:08.374Z,99.99
2023-04-01T01:09:48.666Z,99.99
2023-04-01T01:12:21.609Z,99.99
2023-04-01T01:15:04.047Z,99.99
2023-04-01T01:17:42.784Z,99.99
2023-04-01T01:20:50.678Z,99.99
2023-04-01T01:23:45.694Z,99.99
2023-04-01T01:26:41.586Z,99.99
2023-04-01T01:29:21.137Z,99.99
2023-04-01T01:32:00.724Z,99.99
2023-04-01T01:34:33.849Z,99.99
2023-04-01T01:37:08.036Z,99.99
2023-04-01T01:39:41.927Z,99.99
2023-04-01T01:42:14.001Z,99.99
2023-04-01T01:44:43.973Z,99.99
2023-04-01T01:47:12.946Z,99.99
2023-04-01T01:49:43.308Z,99.99
2023-04-01T01:52:13.444Z,99.99
2023-04-01T01:54:50.028Z,99.99
2023-04-01T01:57:19.808Z,99.99
2023-04-01T01:59:49.805Z,99.99
2023-04-01T02:02:20.091Z,99.99
2023-04-01T02:04:49.156Z,99.99
2023-04-01T02:07:23.505Z,99.99
2023-04-01T02:09:53.009Z,99.99
2023-04-01T02:12:23.081Z,99.99
2023-04-01T02:14:56.176Z,99.99
2023-04-01T02:17:27.438Z,99.99
2023-04-01T02:20:00.365Z,99.99
2023-04-01T02:22:34.851Z,99.99
2023-04-01T02:25:08.077Z,99.99
2023-04-01T02:27:37.721Z,99.99
2023-04-01T02:30:07.239Z,99.99
2023-04-01T02:32:40.801Z,99.99
2023-04-01T02:35:12.887Z,99.99
2023-04-01T02:37:44.865Z,99.99
2023-04-01T02:40:15.747Z,99.99
2023-04-01T02:42:46.843Z,99.99
2023-04-01T02:45:16.925Z,99.99
2023-04-01T02:47:45.783Z,99.99
2023-04-01T02:50:14.490Z,99.99
2023-04-01T02:52:45.730Z,99.99
2023-04-01T02:55:14.014Z,99.99
2023-04-01T02:57:42.939Z,99.99
2023-04-01T03:00:17.765Z,99.99
2023-04-01T03:02:46.484Z,99.99
2023-04-01T03:05:16.541Z,99.99
2023-04-01T03:07:47.547Z,99.99
2023-04-01T03:10:17.134Z,99.99
2023-04-01T03:12:45.815Z,99.99
2023-04-01T03:15:15.873Z,99.99
2023-04-01T03:17:44.893Z,99.99
2023-04-01T03:20:14.114Z,99.99
2023-04-01T03:22:43.146Z,99.99
2023-04-01T03:25:13.031Z,99.99
2023-04-01T03:27:41.451Z,99.99
2023-04-01T03:30:10.796Z,99.99
2023-04-01T03:32:39.462Z,99.99
2023-04-01T03:35:08.511Z,99.99
2023-04-01T03:37:38.129Z,99.99
2023-04-01T03:40:14.699Z,99.99
2023-04-01T03:42:47.261Z,99.99
2023-04-01T03:45:17.405Z,99.99
2023-04-01T03:47:45.717Z,99.99
2023-04-01T03:50:14.766Z,99.99
2023-04-01T03:52:43.147Z,99.99
2023-04-01T03:55:11.819Z,99.99
2023-04-01T03:57:41.707Z,99.99
2023-04-01T04:00:11.084Z,99.99
2023-04-01T04:02:39.534Z,99.99
2023-04-01T04:05:13.812Z,99.99
2023-04-01T04:07:42.325Z,99.99
2023-04-01T04:10:11.411Z,99.99
2023-04-01T04:12:41.765Z,99.99
2023-04-01T04:15:11.061Z,99.99
2023-04-01T04:17:40.895Z,99.99
2023-04-01T04:20:10.717Z,99.99
2023-04-01T04:22:39.445Z,99.99
2023-04-01T04:25:10.854Z,99.99
2023-04-01T04:27:39.390Z,99.99
2023-04-01T04:30:10.468Z,99.99
2023-04-01T04:32:38.871Z,99.99
2023-04-01T04:35:08.247Z,99.99
2023-04-01T04:37:36.719Z,99.99
2023-04-01T04:40:06.247Z,99.99
2023-04-01T04:42:34.880Z,99.99
2023-04-01T04:45:03.256Z,99.99
2023-04-01T04:47:33.723Z,99.74
2023-04-01T04:50:02.581Z,99.99
2023-04-01T04:52:31.314Z,99.98
2023-04-01T04:55:00.532Z,99.99
2023-04-01T04:57:29.233Z,99.99
2023-04-01T04:59:59.397Z,99.99
2023-04-01T05:02:27.979Z,99.99
2023-04-01T05:04:59.161Z,99.99
2023-04-01T05:07:28.348Z,99.99
2023-04-01T05:09:56.688Z,99.99
2023-04-01T05:12:25.066Z,99.99
2023-04-01T05:14:53.424Z,99.99
2023-04-01T05:17:21.740Z,99.99
2023-04-01T05:19:51.262Z,99.99
2023-04-01T05:22:23.541Z,99.99
2023-04-01T05:24:52.099Z,99.99
2023-04-01T05:27:21.906Z,99.99
2023-04-01T05:29:51.556Z,99.99
2023-04-01T05:32:20.602Z,99.99
2023-04-01T05:34:52.231Z,99.99
2023-04-01T05:37:22.323Z,99.99
2023-04-01T05:39:50.748Z,99.51
2023-04-01T05:42:20.462Z,99.60
2023-04-01T05:44:48.798Z,98.77
2023-04-01T05:47:19.699Z,98.49
2023-04-01T05:49:50.607Z,99.12
2023-04-01T05:52:20.306Z,98.58
2023-04-01T05:54:50.349Z,98.71
2023-04-01T05:57:18.676Z,97.84
2023-04-01T05:59:47.362Z,98.39
2023-04-01T06:02:19.600Z,98.72
2023-04-01T06:04:48.602Z,97.17
2023-04-01T06:07:18.986Z,93.70
2023-04-01T06:09:49.586Z,94.07
2023-04-01T06:12:35.724Z,89.45
2023-04-01T06:15:19.680Z,89.15
2023-04-01T06:18:11.117Z,88.82
2023-04-01T06:20:48.269Z,87.18
2023-04-01T06:23:25.823Z,87.67
2023-04-01T06:26:08.570Z,86.01
2023-04-01T06:29:01.833Z,85.61
2023-04-01T06:31:44.527Z,85.17
2023-04-01T06:34:56.800Z,83.36
2023-04-01T06:37:40.156Z,84.00
2023-04-01T06:40:25.156Z,83.18
2023-04-01T06:43:08.549Z,82.46
2023-04-01T06:45:43.927Z,82.55
2023-04-01T06:48:36.201Z,82.58
2023-04-01T06:51:15.126Z,82.80
2023-04-01T06:53:51.447Z,82.28
2023-04-01T06:56:23.361Z,81.59
2023-04-01T06:58:56.327Z,81.72
2023-04-01T07:01:29.045Z,81.05
2023-04-01T07:04:01.427Z,80.20
2023-04-01T07:06:34.569Z,80.72
2023-04-01T07:09:08.308Z,79.53
2023-04-01T07:11:39.737Z,79.99
2023-04-01T07:14:18.728Z,79.43
2023-04-01T07:16:51.399Z,80.30
2023-04-01T07:19:33.741Z,80.35
2023-04-01T07:22:08.382Z,78.02
2023-04-01T07:24:40.094Z,78.03
2023-04-01T07:27:12.311Z,76.51
2023-04-01T07:29:42.363Z,75.96
2023-04-01T07:32:24.311Z,75.81
2023-04-01T07:35:04.436Z,75.51
2023-04-01T07:37:42.467Z,74.83
2023-04-01T07:40:23.174Z,74.73
2023-04-01T07:43:10.506Z,74.10
2023-04-01T07:45:46.539Z,74.43
2023-04-01T07:48:25.665Z,72.68
2023-04-01T07:55:09.305Z,72.59
2023-04-01T07:57:45.752Z,72.11
2023-04-01T08:00:22.990Z,71.97
2023-04-01T08:03:09.331Z,72.90
2023-04-01T08:05:47.086Z,72.71
2023-04-01T08:08:21.855Z,72.86
2023-04-01T08:10:54.418Z,73.24
2023-04-01T08:13:31.664Z,72.63
2023-04-01T08:16:08.273Z,73.01
2023-04-01T08:18:46.632Z,72.21
2023-04-01T08:21:19.727Z,72.75
2023-04-01T08:23:50.623Z,72.00
2023-04-01T08:26:32.084Z,72.03
2023-04-01T08:29:06.689Z,72.38
2023-04-01T08:31:39.942Z,71.94
2023-04-01T08:34:17.509Z,72.17
2023-04-01T08:36:54.991Z,71.34
2023-04-01T08:39:31.860Z,72.25
2023-04-01T08:42:29.923Z,72.62
2023-04-01T08:45:18.407Z,71.52
2023-04-01T08:48:12.445Z,71.63
2023-04-01T08:51:10.349Z,71.81
2023-04-01T08:54:06.838Z,71.69
2023-04-01T08:56:42.552Z,71.16
2023-04-01T08:59:27.928Z,71.73
2023-04-01T09:02:20.542Z,71.03
2023-04-01T09:05:23.726Z,70.19
2023-04-01T09:08:02.751Z,70.27
2023-04-01T09:11:02.573Z,70.05
2023-04-01T09:13:58.169Z,69.10
2023-04-01T09:16:38.626Z,69.43
2023-04-01T09:19:30.852Z,70.10
2023-04-01T09:22:16.536Z,69.74
2023-04-01T09:25:17.109Z,70.67
2023-04-01T09:27:58.205Z,70.68
2023-04-01T09:31:10.546Z,71.35
2023-04-01T09:34:24.182Z,70.54
2023-04-01T09:37:06.178Z,69.84
2023-04-01T09:39:39.202Z,69.73
2023-04-01T09:42:30.094Z,69.79
2023-04-01T09:45:02.492Z,69.36
2023-04-01T09:47:49.253Z,70.30
